Time;durP1;ratioP1;P1;durP2;ratioP2;P2;SDS_P1;SDS_P2;PMS_P1;PMS_P2;Temp;Humidity;BMP_temperature;BMP_pressure;BME280_temperature;BME280_humidity;BME280_pressure;Samples;Min_cycle;Max_cycle;Signal;HPM_P1;HPM_P2
2023/04/28 00:00:15;;;;;;;;;;;5.50;99.90;;;;;;5033565;28;19908;-84
2023/04/28 00:02:41;;;;;;;;;;;5.40;99.90;;;;;;5033512;28;20385;-86
2023/04/28 00:05:07;;;;;;;;;;;5.30;99.90;;;;;;5033107;28;20301;-86
2023/04/28 00:07:33;;;;;;;;;;;5.30;99.90;;;;;;5033726;28;19912;-85
2023/04/28 00:09:58;;;;;;;;;;;5.20;99.90;;;;;;5033320;28;20378;-86
2023/04/28 00:12:24;;;;;;;;;;;5.20;99.90;;;;;;5033258;28;19912;-86
2023/04/28 00:14:50;;;;;;;;;;;5.20;99.90;;;;;;5032874;28;19912;-85
2023/04/28 00:17:16;;;;;;;;;;;5.30;99.90;;;;;;5032128;28;19911;-85
2023/04/28 00:19:41;;;;;;;;;;;5.30;99.90;;;;;;5033065;28;19905;-85
2023/04/28 00:22:07;;;;;;;;;;;5.40;99.90;;;;;;5032893;28;19909;-85
2023/04/28 00:24:35;;;;;;;;;;;5.40;99.90;;;;;;5033202;28;20277;-85
2023/04/28 00:27:01;;;;;;;;;;;5.40;99.90;;;;;;5033367;28;19931;-85
2023/04/28 00:29:27;;;;;;;;;;;5.40;99.90;;;;;;5031830;28;19905;-84
2023/04/28 00:31:52;;;;;;;;;;;5.30;99.90;;;;;;5032892;28;19905;-85
2023/04/28 00:34:18;;;;;;;;;;;5.40;99.90;;;;;;5033058;28;19952;-85
2023/04/28 00:36:43;;;;;;;;;;;5.40;99.90;;;;;;5032999;28;19937;-85
2023/04/28 00:39:09;;;;;;;;;;;5.40;99.90;;;;;;5032777;28;19905;-85
2023/04/28 00:41:34;;;;;;;;;;;5.60;99.90;;;;;;5032836;28;20358;-85
2023/04/28 00:44:00;;;;;;;;;;;5.60;99.90;;;;;;5032525;28;19913;-85
2023/04/28 00:46:29;;;;;;;;;;;5.50;99.90;;;;;;5032672;28;20011;-85
2023/04/28 00:48:55;;;;;;;;;;;5.50;99.90;;;;;;5032957;28;19905;-85
2023/04/28 00:51:20;;;;;;;;;;;5.50;99.90;;;;;;5032921;28;19905;-86
2023/04/28 00:53:46;;;;;;;;;;;5.60;99.90;;;;;;5032563;28;20378;-85
2023/04/28 00:56:12;;;;;;;;;;;5.60;99.90;;;;;;5032749;28;19911;-85
2023/04/28 00:58:38;;;;;;;;;;;5.80;99.90;;;;;;5032400;28;19976;-85
2023/04/28 01:01:04;;;;;;;;;;;6.00;99.90;;;;;;5032188;28;19913;-85
2023/04/28 01:03:30;;;;;;;;;;;6.10;99.90;;;;;;5030706;28;19920;-86
2023/04/28 01:05:56;;;;;;;;;;;6.20;99.90;;;;;;5030024;28;19908;-86
2023/04/28 01:08:29;;;;;;;;;;;6.30;99.90;;;;;;5033316;28;20384;-86
2023/04/28 01:10:54;;;;;;;;;;;6.40;99.90;;;;;;5032285;28;19905;-86
2023/04/28 01:13:20;;;;;;;;;;;6.40;99.90;;;;;;5034496;28;19916;-85
2023/04/28 01:15:45;;;;;;;;;;;6.30;99.90;;;;;;5032212;28;19905;-85
2023/04/28 01:18:12;;;;;;;;;;;6.20;99.90;;;;;;5032095;28;19905;-85
2023/04/28 01:20:37;;;;;;;;;;;6.20;99.90;;;;;;5032231;28;19909;-85
2023/04/28 01:23:03;;;;;;;;;;;6.10;99.90;;;;;;5032205;28;20356;-86
2023/04/28 01:25:29;;;;;;;;;;;6.10;99.90;;;;;;5032305;28;20333;-85
2023/04/28 01:27:54;;;;;;;;;;;6.00;99.90;;;;;;5031479;28;20439;-85
2023/04/28 01:30:20;;;;;;;;;;;6.00;99.90;;;;;;5031998;28;19905;-84
2023/04/28 01:32:45;;;;;;;;;;;5.90;99.90;;;;;;5031721;28;19905;-86
2023/04/28 01:35:11;;;;;;;;;;;5.80;99.90;;;;;;5032170;28;19905;-86
2023/04/28 01:37:36;;;;;;;;;;;5.70;99.90;;;;;;5032028;28;20155;-86
2023/04/28 01:40:02;;;;;;;;;;;5.80;99.90;;;;;;5032472;28;19905;-86
2023/04/28 01:42:28;;;;;;;;;;;5.70;99.90;;;;;;5031960;28;20373;-86
2023/04/28 01:44:53;;;;;;;;;;;5.60;99.90;;;;;;5033295;28;19909;-84
2023/04/28 01:47:19;;;;;;;;;;;5.50;99.90;;;;;;5031804;28;19968;-85
2023/04/28 01:49:47;;;;;;;;;;;5.50;99.90;;;;;;5031567;28;19918;-86
2023/04/28 01:52:12;;;;;;;;;;;5.50;99.90;;;;;;5031542;28;20047;-85
2023/04/28 01:54:38;;;;;;;;;;;5.50;99.90;;;;;;5031537;28;19981;-85
2023/04/28 01:57:03;;;;;;;;;;;5.50;99.90;;;;;;5031488;28;19905;-85
2023/04/28 01:59:29;;;;;;;;;;;5.50;99.90;;;;;;5031785;28;19956;-85
2023/04/28 02:01:54;;;;;;;;;;;5.40;99.90;;;;;;5032930;28;20325;-85
2023/04/28 02:04:20;;;;;;;;;;;5.40;99.90;;;;;;5031313;28;19995;-85
2023/04/28 02:06:45;;;;;;;;;;;5.30;99.90;;;;;;5031828;28;19905;-85
2023/04/28 02:09:11;;;;;;;;;;;5.20;99.90;;;;;;5031926;28;20286;-85
2023/04/28 02:11:36;;;;;;;;;;;5.10;99.90;;;;;;5031774;28;20391;-85
2023/04/28 02:14:02;;;;;;;;;;;5.00;99.90;;;;;;5031138;28;19909;-85
2023/04/28 02:16:27;;;;;;;;;;;5.00;99.90;;;;;;5031042;28;19905;-86
2023/04/28 02:18:53;;;;;;;;;;;4.90;99.90;;;;;;5031720;28;19911;-85
2023/04/28 02:21:18;;;;;;;;;;;4.90;99.90;;;;;;5031926;28;19905;-85
2023/04/28 02:23:44;;;;;;;;;;;4.80;99.90;;;;;;5031780;28;20374;-86
2023/04/28 02:26:10;;;;;;;;;;;4.80;99.90;;;;;;5031338;28;19905;-85
2023/04/28 02:28:35;;;;;;;;;;;4.70;99.90;;;;;;5031589;28;19912;-86
2023/04/28 02:31:04;;;;;;;;;;;4.70;99.90;;;;;;5032689;28;19905;-86
2023/04/28 02:33:30;;;;;;;;;;;4.60;99.90;;;;;;5031384;28;19905;-85
2023/04/28 02:36:00;;;;;;;;;;;4.60;99.90;;;;;;5031202;28;19905;-84
2023/04/28 02:38:26;;;;;;;;;;;4.50;99.90;;;;;;5031512;28;19994;-86
2023/04/28 02:41:03;;;;;;;;;;;4.50;99.90;;;;;;5034655;28;20298;-85
2023/04/28 02:43:29;;;;;;;;;;;4.40;99.90;;;;;;5034529;28;19917;-85
2023/04/28 02:45:55;;;;;;;;;;;4.30;99.90;;;;;;5034674;28;20255;-85
2023/04/28 02:48:20;;;;;;;;;;;4.20;99.90;;;;;;5034599;28;19905;-84
2023/04/28 02:50:46;;;;;;;;;;;4.00;99.90;;;;;;5035050;28;19917;-83
2023/04/28 02:53:11;;;;;;;;;;;3.90;99.90;;;;;;5034435;28;19912;-85
2023/04/28 02:55:37;;;;;;;;;;;3.80;99.90;;;;;;5035017;28;19916;-85
2023/04/28 02:58:03;;;;;;;;;;;3.70;99.90;;;;;;5034541;28;19920;-85
2023/04/28 03:00:28;;;;;;;;;;;3.60;99.90;;;;;;5034380;28;19995;-86
2023/04/28 03:02:54;;;;;;;;;;;3.60;99.90;;;;;;5035975;28;19966;-85
2023/04/28 03:05:19;;;;;;;;;;;3.50;99.90;;;;;;5035587;28;19905;-84
2023/04/28 03:07:45;;;;;;;;;;;3.50;99.90;;;;;;5034635;28;19955;-85
2023/04/28 03:10:10;;;;;;;;;;;3.50;99.90;;;;;;5051130;28;19913;-85
2023/04/28 03:12:36;;;;;;;;;;;3.40;99.90;;;;;;5034472;28;19916;-85
2023/04/28 03:15:02;;;;;;;;;;;3.40;99.90;;;;;;5034468;28;19905;-85
2023/04/28 03:17:27;;;;;;;;;;;3.30;99.90;;;;;;5033648;28;19905;-85
2023/04/28 03:19:53;;;;;;;;;;;3.30;99.90;;;;;;5031470;28;19909;-86
2023/04/28 03:22:18;;;;;;;;;;;3.20;99.90;;;;;;5033408;28;20396;-85
2023/04/28 03:24:44;;;;;;;;;;;3.20;99.90;;;;;;5033810;28;20031;-85
2023/04/28 03:27:10;;;;;;;;;;;3.20;99.90;;;;;;5033909;28;20361;-85
2023/04/28 03:29:35;;;;;;;;;;;3.20;99.90;;;;;;5034237;28;19908;-85
2023/04/28 03:32:01;;;;;;;;;;;3.20;99.90;;;;;;5035272;28;19995;-85
2023/04/28 03:34:26;;;;;;;;;;;3.20;99.90;;;;;;5034040;28;19909;-85
2023/04/28 03:36:52;;;;;;;;;;;3.30;99.90;;;;;;5034318;28;19962;-83
2023/04/28 03:39:18;;;;;;;;;;;3.30;99.90;;;;;;5033879;28;19913;-85
2023/04/28 03:41:43;;;;;;;;;;;3.30;99.90;;;;;;5034993;28;19916;-84
2023/04/28 03:44:09;;;;;;;;;;;3.30;99.90;;;;;;5033446;28;19920;-85
2023/04/28 03:46:34;;;;;;;;;;;3.40;99.90;;;;;;5050463;28;19959;-85
2023/04/28 03:49:03;;;;;;;;;;;3.30;99.90;;;;;;5033436;28;19916;-85
2023/04/28 03:51:28;;;;;;;;;;;3.30;99.90;;;;;;5032612;28;19905;-85
2023/04/28 03:53:54;;;;;;;;;;;3.40;99.90;;;;;;5033289;28;19912;-85
2023/04/28 03:56:20;;;;;;;;;;;3.40;99.90;;;;;;5033019;28;19970;-85
2023/04/28 03:58:46;;;;;;;;;;;3.40;99.90;;;;;;5032829;28;19924;-85
2023/04/28 04:01:11;;;;;;;;;;;3.40;99.90;;;;;;5031164;28;19909;-85
2023/04/28 04:03:37;;;;;;;;;;;3.50;99.90;;;;;;5032881;28;19928;-85
2023/04/28 04:06:03;;;;;;;;;;;3.50;99.90;;;;;;5033412;28;19939;-84
2023/04/28 04:08:29;;;;;;;;;;;3.50;99.90;;;;;;5034585;28;19937;-84
2023/04/28 04:10:55;;;;;;;;;;;3.70;99.90;;;;;;5034074;28;20015;-85
2023/04/28 04:13:21;;;;;;;;;;;3.80;99.90;;;;;;5032756;28;19995;-86
2023/04/28 04:15:47;;;;;;;;;;;3.90;99.90;;;;;;5033180;28;19909;-84
2023/04/28 04:18:13;;;;;;;;;;;4.10;99.90;;;;;;5033055;28;19997;-84
2023/04/28 04:20:39;;;;;;;;;;;4.30;99.90;;;;;;5032675;28;19905;-85
2023/04/28 04:23:04;;;;;;;;;;;4.60;99.90;;;;;;5033919;28;19916;-85
2023/04/28 04:25:31;;;;;;;;;;;4.80;99.90;;;;;;5049813;28;19909;-85
2023/04/28 04:27:57;;;;;;;;;;;5.00;99.90;;;;;;5032705;28;20353;-85
2023/04/28 04:30:22;;;;;;;;;;;5.20;99.90;;;;;;5032796;28;19912;-85
2023/04/28 04:32:48;;;;;;;;;;;5.30;99.90;;;;;;5033714;28;20342;-85
2023/04/28 04:35:13;;;;;;;;;;;5.50;99.90;;;;;;5031149;28;19905;-85
2023/04/28 04:37:39;;;;;;;;;;;5.70;99.90;;;;;;5032607;28;19928;-85
2023/04/28 04:40:05;;;;;;;;;;;6.00;99.90;;;;;;5032773;28;19905;-85
2023/04/28 04:42:31;;;;;;;;;;;6.20;99.90;;;;;;5032350;28;20373;-86
2023/04/28 04:44:56;;;;;;;;;;;6.50;99.90;;;;;;5047415;28;19905;-83
2023/04/28 04:47:22;;;;;;;;;;;6.80;99.90;;;;;;5032804;28;19912;-85
2023/04/28 04:49:49;;;;;;;;;;;7.20;99.90;;;;;;5032321;28;20007;-85
2023/04/28 04:52:14;;;;;;;;;;;7.50;99.90;;;;;;5032476;28;19905;-84
2023/04/28 04:54:40;;;;;;;;;;;7.90;99.90;;;;;;5030744;28;19955;-85
2023/04/28 04:57:05;;;;;;;;;;;8.40;99.90;;;;;;5032108;28;19917;-86
2023/04/28 04:59:31;;;;;;;;;;;8.90;99.90;;;;;;5048784;28;19913;-84
2023/04/28 05:01:57;;;;;;;;;;;9.30;98.40;;;;;;5031882;28;19909;-86
2023/04/28 05:04:22;;;;;;;;;;;9.60;98.50;;;;;;5030992;28;20807;-86
2023/04/28 05:06:48;;;;;;;;;;;10.00;95.60;;;;;;5033395;28;19912;-86
2023/04/28 05:09:13;;;;;;;;;;;10.40;94.60;;;;;;5030072;28;19909;-84
2023/04/28 05:11:39;;;;;;;;;;;10.60;90.90;;;;;;5031908;28;19905;-85
2023/04/28 05:14:05;;;;;;;;;;;10.90;89.50;;;;;;5030783;28;19913;-84
2023/04/28 05:16:31;;;;;;;;;;;11.30;87.00;;;;;;5032377;28;19962;-86
2023/04/28 05:18:56;;;;;;;;;;;11.90;79.70;;;;;;5033106;28;19992;-85
2023/04/28 05:21:22;;;;;;;;;;;12.30;75.80;;;;;;5047462;28;19915;-87
2023/04/28 05:23:48;;;;;;;;;;;12.80;69.00;;;;;;5032399;28;19917;-85
2023/04/28 05:26:13;;;;;;;;;;;13.20;65.50;;;;;;5047422;28;19917;-86
2023/04/28 05:28:40;;;;;;;;;;;13.50;62.40;;;;;;5032086;28;19952;-85
2023/04/28 05:31:06;;;;;;;;;;;13.50;58.70;;;;;;5030174;28;19905;-85
2023/04/28 05:33:31;;;;;;;;;;;13.50;59.10;;;;;;5045657;28;20336;-86
2023/04/28 05:35:57;;;;;;;;;;;13.70;58.00;;;;;;5031150;28;19919;-87
2023/04/28 05:38:22;;;;;;;;;;;13.90;58.80;;;;;;5030106;28;19905;-87
2023/04/28 05:40:48;;;;;;;;;;;14.60;55.50;;;;;;5031463;28;19912;-85
2023/04/28 05:43:13;;;;;;;;;;;14.90;53.20;;;;;;5029895;28;19956;-87
2023/04/28 05:45:39;;;;;;;;;;;15.30;51.70;;;;;;5031557;28;19916;-87
2023/04/28 05:48:04;;;;;;;;;;;15.90;48.40;;;;;;5031166;28;20278;-87
2023/04/28 05:50:30;;;;;;;;;;;16.20;48.00;;;;;;5048468;28;19912;-87
2023/04/28 05:52:56;;;;;;;;;;;16.50;46.40;;;;;;5031530;28;19913;-87
2023/04/28 05:55:22;;;;;;;;;;;16.80;46.50;;;;;;5029996;28;19909;-87
2023/04/28 05:57:47;;;;;;;;;;;17.00;44.60;;;;;;5029364;28;19932;-86
2023/04/28 06:00:13;;;;;;;;;;;17.40;44.30;;;;;;5046570;28;20395;-85
2023/04/28 06:02:39;;;;;;;;;;;17.70;43.70;;;;;;5030543;28;20373;-86
2023/04/28 06:05:06;;;;;;;;;;;18.00;43.20;;;;;;5031435;28;19913;-86
2023/04/28 06:07:31;;;;;;;;;;;18.30;42.00;;;;;;5032543;28;19905;-85
2023/04/28 06:09:57;;;;;;;;;;;18.60;40.70;;;;;;5031429;28;20275;-85
2023/04/28 06:12:22;;;;;;;;;;;19.00;40.70;;;;;;5030658;28;20853;-85
2023/04/28 06:14:48;;;;;;;;;;;19.10;39.10;;;;;;5033252;28;20346;-85
2023/04/28 06:17:14;;;;;;;;;;;19.50;37.70;;;;;;5035482;28;20007;-85
2023/04/28 06:19:39;;;;;;;;;;;19.50;38.90;;;;;;5034715;28;19905;-85
2023/04/28 06:22:05;;;;;;;;;;;19.70;37.70;;;;;;5035069;28;19956;-85
2023/04/28 06:24:30;;;;;;;;;;;20.00;38.20;;;;;;5034944;28;19935;-85
2023/04/28 06:26:56;;;;;;;;;;;20.40;36.10;;;;;;5034803;28;20288;-85
2023/04/28 06:29:22;;;;;;;;;;;20.20;35.20;;;;;;5035090;28;19911;-85
2023/04/28 06:31:48;;;;;;;;;;;20.50;36.50;;;;;;5033041;28;20289;-86
2023/04/28 06:34:14;;;;;;;;;;;20.90;35.80;;;;;;5034472;28;19905;-85
2023/04/28 06:36:39;;;;;;;;;;;21.10;35.30;;;;;;5050066;28;19912;-85
2023/04/28 06:39:05;;;;;;;;;;;21.70;33.10;;;;;;5034299;28;20408;-85
2023/04/28 06:41:31;;;;;;;;;;;21.80;33.90;;;;;;5034276;28;20281;-86
2023/04/28 06:43:56;;;;;;;;;;;21.60;33.00;;;;;;5036040;28;19913;-86
2023/04/28 06:46:22;;;;;;;;;;;21.20;34.60;;;;;;5034872;28;19928;-84
2023/04/28 06:48:47;;;;;;;;;;;21.10;34.50;;;;;;5034171;28;19909;-85
2023/04/28 06:51:13;;;;;;;;;;;21.20;34.80;;;;;;5034545;28;19951;-85
2023/04/28 06:53:39;;;;;;;;;;;21.30;34.20;;;;;;5034297;28;20389;-85
2023/04/28 06:56:05;;;;;;;;;;;21.40;32.10;;;;;;5034319;28;19912;-85
2023/04/28 06:58:30;;;;;;;;;;;21.50;33.00;;;;;;5034179;28;20439;-85
2023/04/28 07:00:56;;;;;;;;;;;21.70;33.90;;;;;;5033992;28;19912;-85
2023/04/28 07:03:22;;;;;;;;;;;21.80;33.80;;;;;;5033980;28;19909;-86
2023/04/28 07:05:47;;;;;;;;;;;22.00;31.20;;;;;;5035264;28;19913;-85
2023/04/28 07:08:13;;;;;;;;;;;21.50;30.90;;;;;;5033954;28;19944;-85
2023/04/28 07:10:38;;;;;;;;;;;21.10;33.30;;;;;;5050644;28;19909;-86
2023/04/28 07:13:04;;;;;;;;;;;21.00;34.10;;;;;;5032776;28;19909;-85
2023/04/28 07:15:30;;;;;;;;;;;21.30;34.20;;;;;;5033832;28;19909;-85
2023/04/28 07:17:55;;;;;;;;;;;21.10;32.90;;;;;;5034442;28;19909;-84
2023/04/28 07:20:21;;;;;;;;;;;21.20;33.30;;;;;;5034862;28;19911;-85
2023/04/28 07:22:47;;;;;;;;;;;21.60;31.40;;;;;;5050374;28;19913;-85
2023/04/28 07:25:12;;;;;;;;;;;21.50;31.10;;;;;;5032593;28;20027;-84
2023/04/28 07:27:38;;;;;;;;;;;21.40;33.00;;;;;;5048703;28;20003;-85
2023/04/28 07:30:03;;;;;;;;;;;21.70;32.00;;;;;;5033790;28;20361;-84
2023/04/28 07:32:29;;;;;;;;;;;21.30;31.00;;;;;;5035122;28;19924;-85
2023/04/28 07:34:55;;;;;;;;;;;21.50;32.90;;;;;;5033140;28;20003;-85
2023/04/28 07:37:21;;;;;;;;;;;21.90;32.40;;;;;;5033908;28;19912;-86
2023/04/28 07:39:46;;;;;;;;;;;22.50;33.20;;;;;;5034201;28;19905;-85
2023/04/28 07:42:12;;;;;;;;;;;23.10;30.20;;;;;;5034250;28;20456;-85
2023/04/28 07:44:37;;;;;;;;;;;23.20;31.40;;;;;;5033308;28;19925;-85
2023/04/28 07:47:03;;;;;;;;;;;23.40;31.40;;;;;;5031463;28;20361;-86
2023/04/28 07:49:29;;;;;;;;;;;23.70;31.00;;;;;;5030538;28;19913;-84
2023/04/28 07:51:55;;;;;;;;;;;24.40;28.20;;;;;;5033392;28;19916;-85
2023/04/28 07:54:21;;;;;;;;;;;24.10;29.20;;;;;;5031489;28;19912;-85
2023/04/28 07:56:46;;;;;;;;;;;24.10;29.20;;;;;;5031270;28;19916;-85
2023/04/28 07:59:12;;;;;;;;;;;23.70;29.10;;;;;;5033108;28;19913;-85
2023/04/28 08:01:37;;;;;;;;;;;23.40;30.60;;;;;;5033456;28;19909;-85
2023/04/28 08:04:03;;;;;;;;;;;23.60;30.10;;;;;;5033344;28;19917;-85
2023/04/28 08:06:28;;;;;;;;;;;24.30;29.70;;;;;;5032766;28;19909;-85
2023/04/28 08:08:54;;;;;;;;;;;24.70;27.80;;;;;;5032569;28;19952;-83
2023/04/28 08:11:21;;;;;;;;;;;24.70;26.90;;;;;;5031972;28;19959;-85
2023/04/28 08:13:47;;;;;;;;;;;24.50;28.50;;;;;;5031000;28;19995;-85
2023/04/28 08:16:13;;;;;;;;;;;24.60;28.40;;;;;;5032612;28;19964;-85
2023/04/28 08:18:39;;;;;;;;;;;24.40;28.60;;;;;;5031557;28;20384;-84
2023/04/28 08:21:05;;;;;;;;;;;24.40;28.40;;;;;;5033408;28;19916;-85
2023/04/28 08:23:30;;;;;;;;;;;24.30;28.70;;;;;;5032129;28;19920;-84
2023/04/28 08:25:56;;;;;;;;;;;24.60;28.80;;;;;;5029812;28;19909;-85
2023/04/28 08:28:22;;;;;;;;;;;24.90;28.90;;;;;;5031459;28;20316;-85
2023/04/28 08:30:47;;;;;;;;;;;24.70;27.80;;;;;;5031673;28;19916;-85
2023/04/28 08:33:13;;;;;;;;;;;25.30;28.50;;;;;;5032367;28;20235;-85
2023/04/28 08:35:39;;;;;;;;;;;25.60;27.80;;;;;;5031408;28;20299;-85
2023/04/28 08:38:05;;;;;;;;;;;25.60;27.20;;;;;;5031791;28;19905;-84
2023/04/28 08:40:31;;;;;;;;;;;25.40;27.70;;;;;;5029648;28;19912;-86
2023/04/28 08:42:58;;;;;;;;;;;25.10;27.80;;;;;;5031514;28;19909;-84
2023/04/28 08:45:24;;;;;;;;;;;25.10;28.20;;;;;;5032654;28;20276;-85
2023/04/28 08:47:50;;;;;;;;;;;25.30;26.90;;;;;;5032240;28;19905;-85
2023/04/28 08:50:19;;;;;;;;;;;24.70;27.40;;;;;;5030118;28;19951;-85
2023/04/28 08:52:46;;;;;;;;;;;24.60;28.80;;;;;;5031084;28;20377;-86
2023/04/28 08:55:12;;;;;;;;;;;24.30;29.20;;;;;;5030625;28;19905;-85
2023/04/28 08:57:44;;;;;;;;;;;24.30;29.60;;;;;;5032127;28;19924;-84
2023/04/28 09:00:11;;;;;;;;;;;24.50;29.20;;;;;;5031006;28;20332;-85
2023/04/28 09:02:36;;;;;;;;;;;24.50;28.80;;;;;;5030419;28;19960;-84
2023/04/28 09:05:03;;;;;;;;;;;24.40;29.90;;;;;;5029636;28;19963;-85
2023/04/28 09:07:29;;;;;;;;;;;24.70;29.80;;;;;;5030992;28;20453;-85
2023/04/28 09:10:13;;;;;;;;;;;24.50;28.00;;;;;;5030016;28;20016;-83
2023/04/28 09:12:38;;;;;;;;;;;24.30;29.00;;;;;;5033006;28;19948;-85
2023/04/28 09:15:08;;;;;;;;;;;24.30;29.10;;;;;;5029197;28;19999;-86
2023/04/28 09:17:45;;;;;;;;;;;24.20;28.80;;;;;;5030357;28;20380;-85
2023/04/28 09:20:22;;;;;;;;;;;24.50;29.30;;;;;;5029706;28;19905;-84
2023/04/28 09:22:48;;;;;;;;;;;24.60;28.70;;;;;;5029034;28;19905;-84
2023/04/28 09:25:14;;;;;;;;;;;24.50;29.00;;;;;;5029669;28;20011;-84
2023/04/28 09:27:40;;;;;;;;;;;24.70;29.00;;;;;;5048158;28;19995;-86
2023/04/28 09:30:06;;;;;;;;;;;24.60;28.40;;;;;;5031409;28;19936;-84
2023/04/28 09:32:32;;;;;;;;;;;24.30;28.40;;;;;;5029160;28;20429;-85
2023/04/28 09:34:58;;;;;;;;;;;24.30;29.20;;;;;;5029180;28;19913;-85
2023/04/28 09:37:24;;;;;;;;;;;24.60;29.20;;;;;;5047178;28;19990;-85
2023/04/28 09:39:50;;;;;;;;;;;24.90;25.70;;;;;;5031142;28;19958;-85
2023/04/28 09:42:33;;;;;;;;;;;24.60;27.80;;;;;;5029367;28;20473;-84
2023/04/28 09:45:00;;;;;;;;;;;24.80;26.60;;;;;;5029476;28;19917;-84
2023/04/28 09:47:26;;;;;;;;;;;25.30;27.70;;;;;;5046600;28;20328;-85
2023/04/28 09:49:55;;;;;;;;;;;25.30;27.90;;;;;;5032909;28;19913;-83
2023/04/28 09:52:22;;;;;;;;;;;24.80;27.90;;;;;;5034227;28;20255;-85
2023/04/28 09:54:51;;;;;;;;;;;24.40;28.70;;;;;;5036361;28;19915;-85
2023/04/28 09:57:20;;;;;;;;;;;23.90;27.60;;;;;;5036670;28;19924;-84
2023/04/28 09:59:49;;;;;;;;;;;23.00;27.60;;;;;;5033911;28;20090;-83
2023/04/28 10:02:15;;;;;;;;;;;22.20;29.60;;;;;;5032032;28;20303;-83
2023/04/28 10:04:43;;;;;;;;;;;22.40;30.70;;;;;;5033790;28;19913;-85
2023/04/28 10:07:10;;;;;;;;;;;22.60;29.00;;;;;;5034427;28;19916;-82
2023/04/28 10:09:36;;;;;;;;;;;22.50;29.90;;;;;;5034219;28;19909;-85
2023/04/28 10:12:02;;;;;;;;;;;22.50;30.40;;;;;;5035434;28;20294;-84
2023/04/28 10:14:29;;;;;;;;;;;22.30;30.50;;;;;;5033223;28;20012;-83
2023/04/28 10:16:55;;;;;;;;;;;22.10;31.80;;;;;;5033514;28;19905;-84
2023/04/28 10:19:21;;;;;;;;;;;21.90;31.60;;;;;;5035124;28;20007;-83
2023/04/28 10:21:53;;;;;;;;;;;21.60;30.10;;;;;;5035141;28;19959;-83
2023/04/28 10:24:28;;;;;;;;;;;20.90;32.10;;;;;;5035986;28;19913;-83
2023/04/28 10:27:02;;;;;;;;;;;20.40;31.20;;;;;;5034782;28;19905;-84
2023/04/28 10:29:29;;;;;;;;;;;20.10;33.50;;;;;;5034983;28;20374;-83
2023/04/28 10:32:13;;;;;;;;;;;19.90;32.70;;;;;;5033367;28;19912;-82
2023/04/28 10:34:38;;;;;;;;;;;19.40;34.70;;;;;;5049850;28;20385;-84
2023/04/28 10:37:04;;;;;;;;;;;19.20;35.60;;;;;;5033690;28;19916;-84
2023/04/28 10:39:30;;;;;;;;;;;19.00;36.10;;;;;;5032167;28;19905;-82
2023/04/28 10:41:55;;;;;;;;;;;19.10;36.40;;;;;;5032212;28;19909;-83
2023/04/28 10:44:27;;;;;;;;;;;19.20;36.00;;;;;;5051145;28;19920;-83
2023/04/28 10:47:07;;;;;;;;;;;19.20;35.80;;;;;;5051152;28;19950;-82
2023/04/28 10:49:52;;;;;;;;;;;19.30;36.00;;;;;;5032150;28;19905;-82
2023/04/28 10:52:36;;;;;;;;;;;19.30;37.50;;;;;;5050325;28;20396;-84
2023/04/28 10:55:21;;;;;;;;;;;19.40;37.30;;;;;;5048784;28;19991;-82
2023/04/28 10:57:46;;;;;;;;;;;19.40;35.60;;;;;;5048892;28;19917;-83
2023/04/28 11:00:28;;;;;;;;;;;19.30;37.50;;;;;;5031952;28;20332;-82
2023/04/28 11:02:53;;;;;;;;;;;19.30;37.70;;;;;;5032360;28;19913;-85
2023/04/28 11:05:19;;;;;;;;;;;19.40;36.80;;;;;;5033202;28;19915;-84
2023/04/28 11:08:03;;;;;;;;;;;19.30;35.90;;;;;;5048421;28;19999;-84
2023/04/28 11:10:48;;;;;;;;;;;19.10;36.90;;;;;;5048413;28;19990;-84
2023/04/28 11:13:26;;;;;;;;;;;19.00;37.10;;;;;;5048253;28;20003;-82
2023/04/28 11:16:01;;;;;;;;;;;18.80;37.60;;;;;;5031484;28;19905;-84
2023/04/28 11:18:27;;;;;;;;;;;18.80;38.10;;;;;;5034014;28;19932;-82
2023/04/28 11:20:56;;;;;;;;;;;18.80;38.60;;;;;;5032303;28;20352;-84
2023/04/28 11:23:23;;;;;;;;;;;18.80;38.30;;;;;;5032019;28;19909;-83
2023/04/28 11:25:52;;;;;;;;;;;18.90;38.00;;;;;;5031862;28;20366;-84
2023/04/28 11:28:18;;;;;;;;;;;18.80;37.70;;;;;;5031819;28;19922;-84
2023/04/28 11:30:44;;;;;;;;;;;18.70;37.50;;;;;;5031065;28;19909;-84
2023/04/28 11:33:10;;;;;;;;;;;18.60;37.90;;;;;;5032134;28;20286;-83
2023/04/28 11:35:42;;;;;;;;;;;18.70;38.40;;;;;;5031762;28;20258;-83
2023/04/28 11:38:07;;;;;;;;;;;18.70;37.80;;;;;;5031936;28;20039;-83
2023/04/28 11:40:33;;;;;;;;;;;18.70;38.10;;;;;;5031184;28;20404;-83
2023/04/28 11:42:59;;;;;;;;;;;18.70;36.90;;;;;;5032399;28;19939;-82
2023/04/28 11:45:25;;;;;;;;;;;18.70;38.00;;;;;;5033432;28;19911;-82
2023/04/28 11:47:51;;;;;;;;;;;18.60;37.00;;;;;;5032612;28;19908;-84
2023/04/28 11:50:16;;;;;;;;;;;18.60;37.80;;;;;;5031137;28;19936;-83
2023/04/28 11:52:48;;;;;;;;;;;18.60;38.30;;;;;;5031970;28;19909;-84
2023/04/28 11:55:15;;;;;;;;;;;18.40;36.70;;;;;;5033653;28;19956;-83
2023/04/28 11:57:41;;;;;;;;;;;18.20;38.00;;;;;;5031715;28;19924;-83
2023/04/28 12:00:13;;;;;;;;;;;18.20;40.10;;;;;;5032378;28;19905;-83
2023/04/28 12:02:39;;;;;;;;;;;18.20;38.40;;;;;;5030737;28;19920;-83
2023/04/28 12:05:08;;;;;;;;;;;18.20;39.60;;;;;;5032755;28;19909;-83
2023/04/28 12:07:42;;;;;;;;;;;18.20;38.20;;;;;;5031001;28;19995;-82
2023/04/28 12:10:12;;;;;;;;;;;17.90;38.60;;;;;;5031973;28;19909;-84
2023/04/28 12:12:37;;;;;;;;;;;18.00;40.90;;;;;;5031135;28;19916;-82
2023/04/28 12:15:04;;;;;;;;;;;18.10;39.80;;;;;;5030665;28;19913;-84
2023/04/28 12:17:31;;;;;;;;;;;18.10;37.90;;;;;;5031523;28;19905;-84
2023/04/28 12:19:57;;;;;;;;;;;18.20;39.00;;;;;;5031674;28;19948;-83
2023/04/28 12:22:23;;;;;;;;;;;18.40;40.70;;;;;;5030852;28;20042;-84
2023/04/28 12:25:01;;;;;;;;;;;18.50;38.70;;;;;;5030268;28;19916;-84
2023/04/28 12:27:27;;;;;;;;;;;18.50;38.90;;;;;;5047599;28;19974;-83
2023/04/28 12:29:55;;;;;;;;;;;18.40;37.60;;;;;;5031825;28;19909;-84
2023/04/28 12:32:36;;;;;;;;;;;18.40;37.20;;;;;;5031433;28;19953;-84
2023/04/28 12:35:04;;;;;;;;;;;18.30;37.60;;;;;;5032284;28;19909;-84
2023/04/28 12:37:31;;;;;;;;;;;18.40;38.40;;;;;;5030188;28;19998;-85
2023/04/28 12:39:57;;;;;;;;;;;18.50;38.10;;;;;;5031186;28;19924;-84
2023/04/28 12:42:23;;;;;;;;;;;18.60;39.00;;;;;;5029973;28;19909;-83
2023/04/28 12:44:49;;;;;;;;;;;18.80;38.30;;;;;;5030409;28;20439;-84
2023/04/28 12:47:16;;;;;;;;;;;18.80;38.10;;;;;;5030495;28;20420;-84
2023/04/28 12:49:42;;;;;;;;;;;18.90;38.30;;;;;;5030068;28;19913;-84
2023/04/28 12:52:08;;;;;;;;;;;18.60;35.90;;;;;;5032467;28;19913;-83
2023/04/28 12:54:34;;;;;;;;;;;18.40;36.90;;;;;;5030889;28;19905;-84
2023/04/28 12:57:00;;;;;;;;;;;18.10;36.90;;;;;;5031982;28;20411;-85
2023/04/28 12:59:26;;;;;;;;;;;18.10;38.50;;;;;;5030558;28;19932;-84
2023/04/28 13:01:51;;;;;;;;;;;18.20;40.10;;;;;;5030607;28;19905;-83
2023/04/28 13:04:17;;;;;;;;;;;18.30;39.70;;;;;;5030017;28;19913;-84
2023/04/28 13:06:43;;;;;;;;;;;18.40;40.00;;;;;;5029925;28;19912;-84
2023/04/28 13:09:13;;;;;;;;;;;18.60;39.70;;;;;;5047125;28;19912;-84
2023/04/28 13:11:39;;;;;;;;;;;18.60;39.30;;;;;;5030257;28;19936;-83
2023/04/28 13:14:04;;;;;;;;;;;18.60;38.20;;;;;;5030708;28;20297;-83
2023/04/28 13:16:30;;;;;;;;;;;18.40;38.00;;;;;;5031037;28;20285;-84
2023/04/28 13:18:58;;;;;;;;;;;18.30;38.60;;;;;;5032463;28;19908;-85
2023/04/28 13:21:25;;;;;;;;;;;18.30;38.90;;;;;;5032029;28;19928;-84
2023/04/28 13:23:54;;;;;;;;;;;18.10;37.40;;;;;;5031528;28;20028;-85
2023/04/28 13:26:22;;;;;;;;;;;18.10;38.70;;;;;;5029875;28;19916;-83
2023/04/28 13:28:48;;;;;;;;;;;18.00;40.00;;;;;;5030024;28;19908;-84
2023/04/28 13:31:13;;;;;;;;;;;18.00;39.00;;;;;;5029884;28;19924;-83
2023/04/28 13:33:39;;;;;;;;;;;17.90;40.10;;;;;;5031016;28;20003;-84
2023/04/28 13:36:06;;;;;;;;;;;18.00;39.70;;;;;;5028954;28;19916;-84
2023/04/28 13:38:32;;;;;;;;;;;18.10;40.40;;;;;;5031322;28;20008;-84
2023/04/28 13:40:58;;;;;;;;;;;18.10;39.30;;;;;;5029915;28;20060;-84
2023/04/28 13:43:23;;;;;;;;;;;18.20;39.40;;;;;;5029082;28;19913;-85
2023/04/28 13:45:50;;;;;;;;;;;18.30;39.50;;;;;;5029554;28;19905;-86
2023/04/28 13:48:16;;;;;;;;;;;18.30;39.80;;;;;;5031112;28;19908;-84
2023/04/28 13:50:41;;;;;;;;;;;18.20;38.50;;;;;;5034327;28;19905;-84
2023/04/28 13:53:07;;;;;;;;;;;18.20;38.80;;;;;;5029678;28;19951;-83
2023/04/28 13:55:33;;;;;;;;;;;18.10;38.60;;;;;;5029463;28;19913;-83
2023/04/28 13:58:02;;;;;;;;;;;18.20;39.50;;;;;;5030312;28;19978;-83
2023/04/28 14:00:28;;;;;;;;;;;18.30;39.10;;;;;;5030344;28;19913;-83
2023/04/28 14:02:54;;;;;;;;;;;18.10;37.10;;;;;;5030597;28;19905;-84
2023/04/28 14:05:19;;;;;;;;;;;18.10;38.00;;;;;;5029997;28;19999;-84
2023/04/28 14:07:45;;;;;;;;;;;18.00;39.30;;;;;;5029937;28;19915;-84
2023/04/28 14:10:11;;;;;;;;;;;18.10;39.20;;;;;;5029991;28;19911;-84
2023/04/28 14:12:37;;;;;;;;;;;18.10;39.60;;;;;;5031573;28;20007;-83
2023/04/28 14:15:05;;;;;;;;;;;18.10;38.20;;;;;;5031566;28;19950;-84
2023/04/28 14:17:33;;;;;;;;;;;18.00;38.60;;;;;;5031533;28;19905;-84